createdAt,value
2022-11-20T00:01:22.811Z,55.31
2022-11-20T00:03:52.463Z,55.36
2022-11-20T00:06:20.858Z,55.60
2022-11-20T00:08:49.073Z,55.86
2022-11-20T00:11:19.436Z,55.52
2022-11-20T00:13:49.056Z,55.62
2022-11-20T00:16:19.429Z,55.51
2022-11-20T00:18:47.619Z,55.32
2022-11-20T00:21:24.103Z,55.24
2022-11-20T00:23:55.319Z,55.19
2022-11-20T00:26:25.642Z,55.65
2022-11-20T00:28:55.645Z,55.79
2022-11-20T00:31:23.558Z,56.15
2022-11-20T00:33:51.660Z,55.96
2022-11-20T00:36:21.595Z,55.72
2022-11-20T00:38:53.119Z,55.65
2022-11-20T00:41:21.627Z,55.73
2022-11-20T00:43:49.514Z,55.66
2022-11-20T00:46:19.887Z,55.53
2022-11-20T00:48:47.959Z,55.57
2022-11-20T00:51:18.627Z,55.54
2022-11-20T00:53:46.805Z,55.36
2022-11-20T00:56:16.724Z,55.78
2022-11-20T00:58:47.405Z,55.72
2022-11-20T01:01:20.928Z,55.36
2022-11-20T01:03:50.970Z,55.41
2022-11-20T01:06:21.410Z,55.48
2022-11-20T01:08:50.548Z,55.61
2022-11-20T01:11:22.428Z,55.47
2022-11-20T01:13:51.809Z,55.53
2022-11-20T01:16:25.119Z,55.43
2022-11-20T01:18:55.180Z,55.43
2022-11-20T01:21:31.872Z,55.46
2022-11-20T01:24:00.082Z,55.60
2022-11-20T01:26:31.118Z,55.69
2022-11-20T01:28:59.218Z,55.73
2022-11-20T01:31:29.562Z,55.77
2022-11-20T01:33:59.068Z,55.80
2022-11-20T01:36:29.083Z,55.83
2022-11-20T01:39:01.680Z,56.00
2022-11-20T01:41:50.518Z,55.78
2022-11-20T01:44:21.800Z,56.05
2022-11-20T01:46:59.675Z,56.07
2022-11-20T01:49:30.403Z,56.22
2022-11-20T01:52:02.734Z,56.44
2022-11-20T01:54:37.341Z,56.46
2022-11-20T01:57:07.295Z,56.46
2022-11-20T01:59:35.256Z,56.63
2022-11-20T02:02:03.062Z,56.83
2022-11-20T02:04:31.191Z,56.64
2022-11-20T02:07:03.965Z,56.66
2022-11-20T02:09:31.913Z,56.48
2022-11-20T02:12:00.154Z,56.48
2022-11-20T02:14:29.254Z,56.75
2022-11-20T02:16:57.823Z,56.71
2022-11-20T02:19:28.665Z,56.41
2022-11-20T02:22:01.086Z,56.56
2022-11-20T02:24:29.090Z,56.33
2022-11-20T02:27:06.194Z,56.44
2022-11-20T02:29:49.204Z,56.45
2022-11-20T02:32:34.568Z,56.64
2022-11-20T02:35:31.804Z,56.58
2022-11-20T02:38:02.451Z,56.71
2022-11-20T02:40:30.295Z,56.68
2022-11-20T02:42:58.185Z,56.37
2022-11-20T02:45:26.548Z,56.58
2022-11-20T02:47:54.366Z,56.71
2022-11-20T02:50:22.179Z,57.01
2022-11-20T02:52:50.049Z,56.62
2022-11-20T02:55:17.867Z,56.50
2022-11-20T02:57:45.609Z,56.48
2022-11-20T03:00:14.022Z,56.48
2022-11-20T03:02:41.780Z,56.77
2022-11-20T03:05:09.536Z,57.04
2022-11-20T03:07:37.372Z,56.90
2022-11-20T03:10:06.069Z,56.88
2022-11-20T03:12:33.787Z,56.80
2022-11-20T03:15:01.691Z,56.89
2022-11-20T03:17:30.705Z,57.30
2022-11-20T03:19:58.741Z,57.07
2022-11-20T03:22:26.528Z,57.05
2022-11-20T03:24:54.408Z,56.69
2022-11-20T03:27:22.141Z,57.00
2022-11-20T03:29:49.904Z,56.84
2022-11-20T03:36:41.324Z,56.89
2022-11-20T03:39:09.446Z,56.80
2022-11-20T03:41:39.374Z,57.02
2022-11-20T03:44:09.241Z,57.40
2022-11-20T03:46:37.692Z,57.43
2022-11-20T03:49:05.904Z,57.61
2022-11-20T03:51:35.547Z,57.40
2022-11-20T03:54:07.864Z,57.78
2022-11-20T03:56:36.755Z,57.76
2022-11-20T03:59:05.318Z,57.47
2022-11-20T04:01:35.913Z,57.22
2022-11-20T04:04:03.864Z,57.63
2022-11-20T04:06:35.701Z,57.65
2022-11-20T04:09:03.712Z,57.48
2022-11-20T04:11:34.089Z,57.37
2022-11-20T04:14:04.358Z,57.62
2022-11-20T04:16:34.680Z,57.41
2022-11-20T04:19:05.312Z,57.55
2022-11-20T04:21:33.282Z,57.65
2022-11-20T04:24:01.128Z,57.47
2022-11-20T04:26:30.046Z,57.17
2022-11-20T04:28:58.914Z,57.19
2022-11-20T04:31:28.818Z,57.38
2022-11-20T04:34:00.705Z,56.88
2022-11-20T04:36:30.944Z,57.20
2022-11-20T04:39:00.854Z,56.93
2022-11-20T04:41:31.337Z,56.99
2022-11-20T04:44:03.456Z,56.72
2022-11-20T04:46:33.420Z,56.71
2022-11-20T04:49:01.323Z,56.61
2022-11-20T04:51:29.219Z,56.68
2022-11-20T04:53:57.103Z,56.54
2022-11-20T04:56:24.960Z,56.87
2022-11-20T04:58:52.771Z,56.57
2022-11-20T05:01:22.999Z,56.44
2022-11-20T05:03:51.395Z,56.66
2022-11-20T05:06:20.889Z,56.75
2022-11-20T05:08:48.816Z,56.72
2022-11-20T05:11:20.205Z,56.45
2022-11-20T05:13:48.963Z,56.25
2022-11-20T05:16:20.033Z,56.24
2022-11-20T05:18:48.280Z,56.54
2022-11-20T05:21:16.667Z,56.65
2022-11-20T05:23:45.361Z,56.18
2022-11-20T05:26:16.029Z,55.64
2022-11-20T05:28:44.260Z,56.34
2022-11-20T05:31:21.957Z,56.77
2022-11-20T05:33:53.001Z,56.56
2022-11-20T05:36:20.728Z,56.46
2022-11-20T05:38:50.901Z,56.68
2022-11-20T05:41:20.903Z,56.81
2022-11-20T05:43:49.823Z,56.66
2022-11-20T05:46:24.763Z,56.70
2022-11-20T05:48:56.591Z,56.45
2022-11-20T05:51:25.578Z,56.08
2022-11-20T05:53:53.381Z,56.03
2022-11-20T05:56:23.673Z,56.39
2022-11-20T05:58:54.431Z,55.75
2022-11-20T06:01:24.491Z,56.03
2022-11-20T06:03:53.998Z,55.97
2022-11-20T06:06:22.068Z,55.73
2022-11-20T06:08:49.975Z,55.83
2022-11-20T06:11:18.529Z,55.75
2022-11-20T06:13:47.216Z,55.92
2022-11-20T06:16:17.032Z,55.87
2022-11-20T06:18:44.995Z,56.21
2022-11-20T06:21:15.729Z,55.90
2022-11-20T06:23:43.764Z,55.76
2022-11-20T06:26:13.916Z,55.57
2022-11-20T06:28:41.751Z,55.88
2022-11-20T06:31:11.899Z,55.63
2022-11-20T06:33:40.532Z,55.48
2022-11-20T06:36:10.888Z,55.40
2022-11-20T06:38:39.885Z,56.10
2022-11-20T06:41:09.952Z,55.78
2022-11-20T06:43:37.778Z,55.93
2022-11-20T06:46:05.794Z,56.39
2022-11-20T06:48:33.931Z,55.96
2022-11-20T06:51:05.081Z,56.39
2022-11-20T06:53:33.348Z,56.76
2022-11-20T06:56:01.072Z,56.64
2022-11-20T06:58:30.165Z,56.72
2022-11-20T07:01:07.135Z,56.83
2022-11-20T07:03:35.161Z,56.75
2022-11-20T07:06:03.569Z,56.78
2022-11-20T07:08:32.219Z,57.30
2022-11-20T07:11:01.587Z,57.53
2022-11-20T07:13:29.668Z,57.72
2022-11-20T07:16:02.428Z,57.79
2022-11-20T07:18:30.404Z,57.63
2022-11-20T07:21:01.764Z,57.47
2022-11-20T07:23:29.736Z,57.62
2022-11-20T07:25:57.631Z,57.42
2022-11-20T07:28:25.492Z,57.44
2022-11-20T07:30:54.306Z,57.38
2022-11-20T07:33:22.287Z,57.27
2022-11-20T07:35:50.022Z,56.97
2022-11-20T07:38:17.937Z,56.94
2022-11-20T07:40:46.262Z,57.56
2022-11-20T07:43:14.461Z,56.97
2022-11-20T07:45:43.818Z,57.24
2022-11-20T07:48:11.939Z,57.26
2022-11-20T07:50:40.460Z,57.21
2022-11-20T07:53:11.563Z,57.18
2022-11-20T07:55:43.050Z,56.93
2022-11-20T07:58:11.253Z,57.17
2022-11-20T08:00:39.532Z,56.93
2022-11-20T08:03:07.695Z,56.93
2022-11-20T08:05:35.782Z,56.75
2022-11-20T08:08:04.509Z,56.34
2022-11-20T08:10:32.295Z,55.70
2022-11-20T08:13:18.667Z,55.59
2022-11-20T08:15:51.105Z,55.81
2022-11-20T08:18:34.666Z,56.19
2022-11-20T08:21:04.883Z,55.28
2022-11-20T08:23:32.750Z,54.60
2022-11-20T08:26:00.714Z,54.00
2022-11-20T08:28:28.496Z,53.68
2022-11-20T08:31:00.792Z,53.08
2022-11-20T08:33:28.873Z,52.79
2022-11-20T08:36:04.036Z,53.07
2022-11-20T08:38:32.193Z,53.03
2022-11-20T08:41:19.896Z,52.82
2022-11-20T08:43:48.037Z,52.58
2022-11-20T08:46:15.805Z,52.29
2022-11-20T08:48:44.241Z,51.49
2022-11-20T08:51:12.976Z,50.69
2022-11-20T08:53:41.670Z,50.05
2022-11-20T08:56:10.713Z,49.79
2022-11-20T08:59:10.030Z,49.97
2022-11-20T09:01:28.499Z,49.67
2022-11-20T09:03:57.980Z,48.87
2022-11-20T09:06:26.268Z,48.57
2022-11-20T09:08:54.649Z,48.34
2022-11-20T09:11:22.758Z,48.18
2022-11-20T09:13:50.787Z,47.78
2022-11-20T09:16:19.448Z,47.61
2022-11-20T09:18:47.912Z,47.29
2022-11-20T09:21:21.815Z,47.22
2022-11-20T09:23:49.665Z,47.22
2022-11-20T09:26:17.388Z,47.08
2022-11-20T09:28:45.280Z,46.85
2022-11-20T09:31:23.970Z,46.41
2022-11-20T09:33:52.065Z,45.97
2022-11-20T09:36:20.015Z,46.04
2022-11-20T09:38:48.448Z,45.41
2022-11-20T09:41:52.441Z,46.38
2022-11-20T09:44:54.542Z,46.89
2022-11-20T09:48:00.232Z,46.11
2022-11-20T09:50:50.503Z,46.15
2022-11-20T09:53:41.929Z,45.31
2022-11-20T09:56:12.125Z,44.40
2022-11-20T09:58:43.759Z,44.35
2022-11-20T10:01:32.945Z,43.81
2022-11-20T10:04:21.657Z,43.53
2022-11-20T10:07:10.569Z,43.34
2022-11-20T10:09:57.291Z,43.13
2022-11-20T10:12:43.900Z,42.71
2022-11-20T10:15:50.652Z,40.77
2022-11-20T10:18:40.908Z,41.45
2022-11-20T10:21:13.076Z,41.50
2022-11-20T10:23:52.974Z,40.74
2022-11-20T10:26:27.241Z,40.27
2022-11-20T10:29:11.629Z,40.09
2022-11-20T10:31:42.018Z,39.26
2022-11-20T10:34:31.460Z,38.82
2022-11-20T10:37:19.162Z,38.85
2022-11-20T10:40:08.928Z,39.03
2022-11-20T10:42:49.436Z,37.79
2022-11-20T10:45:25.438Z,38.05
2022-11-20T10:48:21.598Z,38.65
2022-11-20T10:51:28.049Z,38.46
2022-11-20T10:54:18.100Z,38.17
2022-11-20T10:56:52.174Z,38.13
2022-11-20T10:59:32.243Z,37.92
2022-11-20T11:02:03.232Z,37.75
2022-11-20T11:04:34.990Z,37.46
2022-11-20T11:07:10.671Z,37.24
2022-11-20T11:09:44.405Z,37.37
2022-11-20T11:12:12.644Z,36.33
2022-11-20T11:14:45.892Z,36.11
2022-11-20T11:21:32.643Z,35.46
2022-11-20T11:24:19.903Z,35.03
2022-11-20T11:27:00.158Z,35.19
2022-11-20T11:29:30.463Z,34.36
2022-11-20T11:32:10.164Z,34.13
2022-11-20T11:34:38.180Z,34.24
2022-11-20T11:37:16.774Z,34.28
2022-11-20T11:39:45.573Z,34.17
2022-11-20T11:42:18.227Z,34.59
2022-11-20T11:45:06.337Z,34.67
2022-11-20T11:47:40.146Z,34.64
2022-11-20T11:50:10.976Z,34.30
2022-11-20T11:52:45.256Z,34.41
2022-11-20T11:55:39.289Z,34.42
2022-11-20T11:58:16.720Z,34.14
2022-11-20T12:00:58.913Z,33.88
2022-11-20T12:03:44.871Z,32.90
2022-11-20T12:06:15.252Z,33.18
2022-11-20T12:09:06.031Z,34.18
2022-11-20T12:11:45.099Z,34.18
2022-11-20T12:14:20.765Z,34.30
2022-11-20T12:16:51.176Z,34.17
2022-11-20T12:19:22.272Z,34.18
2022-11-20T12:22:27.221Z,34.02
2022-11-20T12:24:57.731Z,34.20
2022-11-20T12:27:41.205Z,33.80
2022-11-20T12:30:15.967Z,33.61
2022-11-20T12:33:08.479Z,33.84
2022-11-20T12:35:44.969Z,33.67
2022-11-20T12:38:37.093Z,33.73
2022-11-20T12:41:42.187Z,33.48
2022-11-20T12:55:36.648Z,33.62
2022-11-20T12:58:32.629Z,33.54
2022-11-20T13:01:48.672Z,33.75
2022-11-20T13:04:22.366Z,33.50
2022-11-20T13:06:50.145Z,33.24
2022-11-20T13:09:22.814Z,33.06
2022-11-20T13:12:03.606Z,32.71
2022-11-20T13:15:00.627Z,32.70
2022-11-20T13:17:36.584Z,32.67
2022-11-20T13:20:07.331Z,32.42
2022-11-20T13:22:49.739Z,32.16
2022-11-20T13:25:25.468Z,32.15
2022-11-20T13:27:54.408Z,31.82
2022-11-20T13:30:29.417Z,31.56
2022-11-20T13:33:02.041Z,31.12
2022-11-20T13:35:35.214Z,31.29
2022-11-20T13:38:11.382Z,31.16
2022-11-20T13:41:00.415Z,31.22
2022-11-20T13:43:42.323Z,31.21
2022-11-20T13:46:10.901Z,30.86
2022-11-20T13:48:46.962Z,30.81
2022-11-20T13:51:35.940Z,30.56
2022-11-20T13:54:41.039Z,30.85
2022-11-20T13:57:27.061Z,30.68
2022-11-20T13:59:59.748Z,30.80
2022-11-20T14:02:30.510Z,30.08
2022-11-20T14:05:00.084Z,29.56
2022-11-20T14:07:41.087Z,29.81
2022-11-20T14:10:32.033Z,30.10
2022-11-20T14:13:11.989Z,30.15
2022-11-20T14:15:44.917Z,30.18
2022-11-20T14:18:22.705Z,30.27
2022-11-20T14:20:50.477Z,30.27
2022-11-20T14:23:30.209Z,30.09
2022-11-20T14:25:58.355Z,30.14
2022-11-20T14:28:31.418Z,30.06
2022-11-20T14:30:59.452Z,30.87
2022-11-20T14:33:27.587Z,31.31
2022-11-20T14:35:57.222Z,30.93
2022-11-20T14:38:29.635Z,30.93
2022-11-20T14:41:15.525Z,31.51
2022-11-20T14:43:47.065Z,32.31
2022-11-20T14:46:15.201Z,33.13
2022-11-20T14:48:48.560Z,33.96
2022-11-20T14:51:42.549Z,34.84
2022-11-20T14:54:16.324Z,35.73
2022-11-20T14:57:04.680Z,36.54
2022-11-20T14:59:34.426Z,37.14
2022-11-20T15:02:10.278Z,37.75
2022-11-20T15:04:49.469Z,38.23
2022-11-20T15:07:32.965Z,39.08
2022-11-20T15:10:03.787Z,39.71
2022-11-20T15:12:33.061Z,40.37
2022-11-20T15:15:02.506Z,40.84
2022-11-20T15:17:31.754Z,41.93
2022-11-20T15:20:00.995Z,42.36
2022-11-20T15:22:28.734Z,42.77
2022-11-20T15:24:56.525Z,43.11
2022-11-20T15:27:24.281Z,43.51
2022-11-20T15:29:52.145Z,44.12
2022-11-20T15:32:19.930Z,44.28
2022-11-20T15:34:47.884Z,45.00
2022-11-20T15:37:15.655Z,45.31
2022-11-20T15:39:43.429Z,45.63
2022-11-20T15:42:11.187Z,46.25
2022-11-20T15:44:38.955Z,46.49
2022-11-20T15:47:06.709Z,47.07
2022-11-20T15:49:34.451Z,47.28
2022-11-20T15:52:02.273Z,47.71
2022-11-20T15:54:30.067Z,47.72
2022-11-20T15:56:57.861Z,47.88
2022-11-20T15:59:25.578Z,48.32
2022-11-20T16:01:53.333Z,48.64
2022-11-20T16:04:21.316Z,48.55
2022-11-20T16:06:49.251Z,48.71
2022-11-20T16:09:17.015Z,48.89
2022-11-20T16:11:45.000Z,48.94
2022-11-20T16:14:31.353Z,49.08
2022-11-20T16:16:59.101Z,49.33
2022-11-20T16:19:26.839Z,49.76
2022-11-20T16:21:59.674Z,50.10
2022-11-20T16:24:31.065Z,50.24
2022-11-20T16:26:59.118Z,50.56
2022-11-20T16:29:27.156Z,50.58
2022-11-20T16:31:58.232Z,50.57
2022-11-20T16:34:27.234Z,50.43
2022-11-20T16:36:55.527Z,50.74
2022-11-20T16:39:24.068Z,50.70
2022-11-20T16:41:52.275Z,50.80
2022-11-20T16:44:21.136Z,50.99
2022-11-20T16:46:51.585Z,51.13
2022-11-20T16:49:19.549Z,51.54
2022-11-20T16:51:47.517Z,51.56
2022-11-20T16:54:20.559Z,51.55
2022-11-20T16:56:51.045Z,51.46
2022-11-20T16:59:19.217Z,51.43
2022-11-20T17:01:47.003Z,51.38
2022-11-20T17:04:15.013Z,51.48
2022-11-20T17:06:47.820Z,51.43
2022-11-20T17:09:15.661Z,51.37
2022-11-20T17:11:46.055Z,51.36
2022-11-20T17:14:13.858Z,51.47
2022-11-20T17:16:41.856Z,51.39
2022-11-20T17:19:09.809Z,51.33
2022-11-20T17:21:46.614Z,51.43
2022-11-20T17:24:16.253Z,51.34
2022-11-20T17:26:44.920Z,52.03
2022-11-20T17:29:15.376Z,52.18
2022-11-20T17:31:44.066Z,52.43
2022-11-20T17:34:13.741Z,52.88
2022-11-20T17:36:45.765Z,53.01
2022-11-20T17:39:15.046Z,53.18
2022-11-20T17:41:43.241Z,53.46
2022-11-20T17:44:11.824Z,53.53
2022-11-20T17:46:39.756Z,53.54
2022-11-20T17:49:07.620Z,53.50
2022-11-20T17:51:35.550Z,53.80
2022-11-20T17:54:05.195Z,53.92
2022-11-20T17:56:53.472Z,54.16
2022-11-20T17:59:21.770Z,54.11
2022-11-20T18:01:49.859Z,54.26
2022-11-20T18:04:18.058Z,54.01
2022-11-20T18:06:46.303Z,53.97
2022-11-20T18:09:14.035Z,53.89
2022-11-20T18:11:45.747Z,53.68
2022-11-20T18:14:36.548Z,53.67
2022-11-20T18:17:10.948Z,53.62
2022-11-20T18:20:00.674Z,53.71
2022-11-20T18:22:32.675Z,53.70
2022-11-20T18:25:00.997Z,53.83
2022-11-20T18:27:29.112Z,53.87
2022-11-20T18:29:56.866Z,53.90
2022-11-20T18:32:24.646Z,53.89
2022-11-20T18:34:52.381Z,53.85
2022-11-20T18:37:20.212Z,53.92
2022-11-20T18:39:50.292Z,53.95
2022-11-20T18:42:36.732Z,53.92
2022-11-20T18:45:05.601Z,54.20
2022-11-20T18:47:37.757Z,54.31
2022-11-20T18:50:07.057Z,54.35
2022-11-20T18:52:39.372Z,54.23
2022-11-20T18:55:07.413Z,54.29
2022-11-20T18:57:35.231Z,54.12
2022-11-20T19:00:08.931Z,54.17
2022-11-20T19:02:42.074Z,53.96
2022-11-20T19:05:12.012Z,53.91
2022-11-20T19:07:40.082Z,54.30
2022-11-20T19:10:08.659Z,53.86
2022-11-20T19:12:36.419Z,53.71
2022-11-20T19:15:05.211Z,53.57
2022-11-20T19:17:33.781Z,53.57
2022-11-20T19:20:02.053Z,53.68
2022-11-20T19:22:29.889Z,53.46
2022-11-20T19:24:57.614Z,53.49
2022-11-20T19:27:25.405Z,53.38
2022-11-20T19:29:53.149Z,53.51
2022-11-20T19:32:21.087Z,53.58
2022-11-20T19:34:49.281Z,53.56
2022-11-20T19:37:17.048Z,53.59
2022-11-20T19:39:44.769Z,53.86
2022-11-20T19:42:12.600Z,53.80
2022-11-20T19:44:40.835Z,53.95
2022-11-20T19:47:14.016Z,53.94
2022-11-20T19:49:42.531Z,53.99
2022-11-20T19:52:10.351Z,54.18
2022-11-20T19:54:38.193Z,54.20
2022-11-20T19:57:05.978Z,54.26
2022-11-20T19:59:33.702Z,54.62
2022-11-20T20:02:03.466Z,54.44
2022-11-20T20:04:31.729Z,54.49
2022-11-20T20:06:59.584Z,54.63
2022-11-20T20:09:27.731Z,54.69
2022-11-20T20:11:55.445Z,54.80
2022-11-20T20:14:23.232Z,54.78
2022-11-20T20:16:51.476Z,54.82
2022-11-20T20:19:19.391Z,54.81
2022-11-20T20:21:48.095Z,55.00
2022-11-20T20:24:16.166Z,55.07
2022-11-20T20:26:43.988Z,55.07
2022-11-20T20:29:11.940Z,55.30
2022-11-20T20:31:40.972Z,55.29
2022-11-20T20:34:08.834Z,55.25
2022-11-20T20:36:36.640Z,55.21
2022-11-20T20:39:04.553Z,55.34
2022-11-20T20:41:32.860Z,55.42
2022-11-20T20:44:20.566Z,55.37
2022-11-20T20:46:52.299Z,55.40
2022-11-20T20:49:20.204Z,55.40
2022-11-20T20:51:47.945Z,55.51
2022-11-20T20:54:15.705Z,55.53
2022-11-20T20:56:43.479Z,55.59
2022-11-20T20:59:11.187Z,55.53
2022-11-20T21:01:39.069Z,55.76
2022-11-20T21:04:06.996Z,55.79
2022-11-20T21:06:34.721Z,55.69
2022-11-20T21:09:02.458Z,55.72
2022-11-20T21:11:30.185Z,55.64
2022-11-20T21:13:58.171Z,55.78
2022-11-20T21:16:26.364Z,56.00
2022-11-20T21:18:54.160Z,56.29
2022-11-20T21:21:40.594Z,56.35
2022-11-20T21:24:08.819Z,56.54
2022-11-20T21:26:36.575Z,56.22
2022-11-20T21:29:04.405Z,55.92
2022-11-20T21:31:32.209Z,56.05
2022-11-20T21:34:01.431Z,56.22
2022-11-20T21:36:31.036Z,56.20
2022-11-20T21:39:02.023Z,56.11
2022-11-20T21:41:30.808Z,55.99
2022-11-20T21:46:48.451Z,55.84
2022-11-20T21:49:18.212Z,56.12
2022-11-20T21:51:46.039Z,56.02
2022-11-20T21:54:13.951Z,56.46
2022-11-20T21:56:41.680Z,57.04
2022-11-20T21:59:12.858Z,56.98
2022-11-20T22:01:41.646Z,57.10
2022-11-20T22:04:13.469Z,56.69
2022-11-20T22:06:41.242Z,56.55
2022-11-20T22:09:09.967Z,56.82
2022-11-20T22:11:37.761Z,57.01
2022-11-20T22:14:20.951Z,56.88
2022-11-20T22:16:50.612Z,56.90
2022-11-20T22:19:20.564Z,56.93
2022-11-20T22:21:50.546Z,56.93
2022-11-20T22:24:19.796Z,56.95
2022-11-20T22:26:48.250Z,56.49
2022-11-20T22:29:23.859Z,56.53
2022-11-20T22:31:52.966Z,56.69
2022-11-20T22:34:21.187Z,56.34
2022-11-20T22:36:49.193Z,56.20
2022-11-20T22:39:20.025Z,56.24
2022-11-20T22:41:47.757Z,56.19
2022-11-20T22:44:16.384Z,55.85
2022-11-20T22:46:44.148Z,55.78
2022-11-20T22:49:11.931Z,55.94
2022-11-20T22:51:40.981Z,56.05
2022-11-20T22:54:13.524Z,55.84
2022-11-20T22:56:41.762Z,55.81
2022-11-20T22:59:09.621Z,55.71
2022-11-20T23:01:37.748Z,55.76
2022-11-20T23:04:08.118Z,55.99
2022-11-20T23:06:35.906Z,56.06
2022-11-20T23:09:05.104Z,55.83
2022-11-20T23:11:33.449Z,55.80
2022-11-20T23:14:04.282Z,55.65
2022-11-20T23:16:33.925Z,55.64
2022-11-20T23:19:10.461Z,55.75
2022-11-20T23:21:39.511Z,55.75
2022-11-20T23:24:08.693Z,56.16
2022-11-20T23:26:38.986Z,56.50
2022-11-20T23:29:07.540Z,56.55
2022-11-20T23:31:35.946Z,56.32
2022-11-20T23:34:04.290Z,56.18
2022-11-20T23:36:32.549Z,56.27
2022-11-20T23:39:00.347Z,56.41
2022-11-20T23:41:28.321Z,56.47
2022-11-20T23:43:56.114Z,55.93
2022-11-20T23:46:23.875Z,55.73
2022-11-20T23:48:51.710Z,55.80
2022-11-20T23:51:19.428Z,55.74
2022-11-20T23:53:47.176Z,55.69
2022-11-20T23:56:17.036Z,55.79
2022-11-20T23:58:44.806Z,56.02
